createdAt,value
2023-02-04T00:00:40.099Z,0.00
2023-02-04T00:01:40.086Z,0.00
2023-02-04T00:02:40.112Z,0.00
2023-02-04T00:03:39.372Z,0.00
2023-02-04T00:04:40.059Z,0.00
2023-02-04T00:05:40.095Z,0.00
2023-02-04T00:06:40.031Z,0.00
2023-02-04T00:07:41.268Z,0.00
2023-02-04T00:08:39.313Z,0.00
2023-02-04T00:09:39.315Z,0.00
2023-02-04T00:10:39.987Z,0.00
2023-02-04T00:11:39.987Z,0.00
2023-02-04T00:12:39.318Z,0.00
2023-02-04T00:13:39.977Z,0.00
2023-02-04T00:14:39.248Z,0.00
2023-02-04T00:15:39.282Z,0.00
2023-02-04T00:16:39.229Z,0.00
2023-02-04T00:17:39.238Z,0.00
2023-02-04T00:18:39.239Z,0.00
2023-02-04T00:19:39.891Z,0.00
2023-02-04T00:20:39.883Z,0.00
2023-02-04T00:21:39.180Z,0.00
2023-02-04T00:22:39.867Z,0.00
2023-02-04T00:23:39.207Z,0.00
2023-02-04T00:24:40.593Z,0.00
2023-02-04T00:25:39.175Z,0.00
2023-02-04T00:26:39.818Z,0.00
2023-02-04T00:27:39.200Z,0.00
2023-02-04T00:28:39.114Z,0.00
2023-02-04T00:29:39.104Z,0.00
2023-02-04T00:30:39.775Z,0.00
2023-02-04T00:31:39.881Z,0.00
2023-02-04T00:32:39.758Z,0.00
2023-02-04T00:33:39.061Z,0.00
2023-02-04T00:34:39.034Z,0.00
2023-02-04T00:35:39.712Z,0.00
2023-02-04T00:36:39.702Z,0.00
2023-02-04T00:37:39.024Z,0.00
2023-02-04T00:38:38.999Z,0.00
2023-02-04T00:39:38.999Z,0.00
2023-02-04T00:40:38.994Z,0.00
2023-02-04T00:41:39.652Z,0.00
2023-02-04T00:42:39.651Z,0.00
2023-02-04T00:43:38.977Z,0.00
2023-02-04T00:44:38.942Z,0.00
2023-02-04T00:45:38.953Z,0.00
2023-02-04T00:46:38.930Z,0.00
2023-02-04T00:47:38.909Z,0.00
2023-02-04T00:48:39.575Z,0.00
2023-02-04T00:49:39.568Z,0.00
2023-02-04T00:50:38.867Z,0.00
2023-02-04T00:51:39.540Z,0.00
2023-02-04T00:52:39.534Z,0.00
2023-02-04T00:53:39.528Z,0.00
2023-02-04T00:54:39.510Z,0.00
2023-02-04T00:55:39.505Z,0.00
2023-02-04T00:56:38.804Z,0.00
2023-02-04T00:57:39.486Z,0.00
2023-02-04T00:58:39.475Z,0.00
2023-02-04T00:59:38.810Z,0.00
2023-02-04T01:00:39.483Z,0.00
2023-02-04T01:01:39.435Z,0.00
2023-02-04T01:02:38.784Z,0.00
2023-02-04T01:03:39.429Z,0.00
2023-02-04T01:04:39.409Z,0.00
2023-02-04T01:05:39.401Z,0.00
2023-02-04T01:06:39.392Z,0.00
2023-02-04T01:07:39.487Z,0.00
2023-02-04T01:08:39.365Z,0.00
2023-02-04T01:09:39.375Z,0.00
2023-02-04T01:10:38.686Z,0.00
2023-02-04T01:11:39.343Z,0.00
2023-02-04T01:12:38.651Z,0.00
2023-02-04T01:13:38.656Z,0.00
2023-02-04T01:14:38.635Z,0.00
2023-02-04T01:15:38.644Z,0.00
2023-02-04T01:16:39.303Z,0.00
2023-02-04T01:17:39.268Z,0.00
2023-02-04T01:18:38.587Z,0.00
2023-02-04T01:19:39.252Z,0.00
2023-02-04T01:20:39.237Z,0.00
2023-02-04T01:21:41.016Z,0.00
2023-02-04T01:22:38.589Z,0.00
2023-02-04T01:23:39.210Z,0.00
2023-02-04T01:24:39.208Z,0.00
2023-02-04T01:25:38.558Z,0.00
2023-02-04T01:26:39.185Z,0.00
2023-02-04T01:27:39.460Z,0.00
2023-02-04T01:28:39.158Z,0.00
2023-02-04T01:29:39.401Z,0.00
2023-02-04T01:30:39.173Z,0.00
2023-02-04T01:31:39.164Z,0.00
2023-02-04T01:32:39.353Z,0.00
2023-02-04T01:33:39.356Z,0.00
2023-02-04T01:34:39.102Z,0.00
2023-02-04T01:35:39.323Z,0.00
2023-02-04T01:36:38.379Z,0.00
2023-02-04T01:37:39.059Z,0.00
2023-02-04T01:38:39.066Z,0.00
2023-02-04T01:39:39.052Z,0.00
2023-02-04T01:40:39.041Z,0.00
2023-02-04T01:41:39.016Z,0.00
2023-02-04T01:42:39.017Z,0.00
2023-02-04T01:43:40.270Z,0.00
2023-02-04T01:44:39.211Z,0.00
2023-02-04T01:45:39.011Z,0.00
2023-02-04T01:46:39.216Z,0.00
2023-02-04T01:47:39.237Z,0.00
2023-02-04T01:48:39.062Z,0.00
2023-02-04T01:49:39.220Z,0.00
2023-02-04T01:50:39.164Z,0.00
2023-02-04T01:51:38.927Z,0.00
2023-02-04T01:52:38.891Z,0.00
2023-02-04T01:53:38.202Z,0.00
2023-02-04T01:54:39.182Z,0.00
2023-02-04T01:55:38.195Z,0.00
2023-02-04T01:56:39.095Z,0.00
2023-02-04T01:57:39.084Z,0.00
2023-02-04T01:58:38.138Z,0.00
2023-02-04T01:59:38.665Z,0.00
2023-02-04T02:00:39.087Z,0.00
2023-02-04T02:01:39.067Z,0.00
2023-02-04T02:02:38.838Z,0.00
2023-02-04T02:03:38.784Z,0.00
2023-02-04T02:04:38.765Z,0.00
2023-02-04T02:05:38.768Z,0.00
2023-02-04T02:06:38.755Z,0.00
2023-02-04T02:07:39.010Z,0.00
2023-02-04T02:08:38.996Z,0.00
2023-02-04T02:09:38.729Z,0.00
2023-02-04T02:10:38.715Z,0.00
2023-02-04T02:11:38.967Z,0.00
2023-02-04T02:12:38.997Z,0.00
2023-02-04T02:13:38.928Z,0.00
2023-02-04T02:14:38.936Z,0.00
2023-02-04T02:15:38.930Z,0.00
2023-02-04T02:16:38.653Z,0.00
2023-02-04T02:17:38.640Z,0.00
2023-02-04T02:18:38.919Z,0.00
2023-02-04T02:19:38.615Z,0.00
2023-02-04T02:20:38.603Z,0.00
2023-02-04T02:21:38.855Z,0.00
2023-02-04T02:22:38.580Z,0.00
2023-02-04T02:23:38.568Z,0.00
2023-02-04T02:24:38.857Z,0.00
2023-02-04T02:25:38.549Z,0.00
2023-02-04T02:26:38.799Z,0.00
2023-02-04T02:27:38.838Z,0.00
2023-02-04T02:28:38.780Z,0.00
2023-02-04T02:29:38.521Z,0.00
2023-02-04T02:30:38.898Z,0.00
2023-02-04T02:31:38.825Z,0.00
2023-02-04T02:32:38.720Z,0.00
2023-02-04T02:33:38.742Z,0.00
2023-02-04T02:34:38.704Z,0.00
2023-02-04T02:35:38.440Z,0.00
2023-02-04T02:36:38.420Z,0.00
2023-02-04T02:37:38.699Z,0.00
2023-02-04T02:38:38.415Z,0.00
2023-02-04T02:39:38.400Z,0.00
2023-02-04T02:40:37.709Z,0.00
2023-02-04T02:41:38.379Z,0.00
2023-02-04T02:42:38.356Z,0.00
2023-02-04T02:43:38.646Z,0.00
2023-02-04T02:44:38.595Z,0.00
2023-02-04T02:45:38.610Z,0.00
2023-02-04T02:46:38.321Z,0.00
2023-02-04T02:47:38.595Z,0.00
2023-02-04T02:48:38.308Z,0.00
2023-02-04T02:49:38.320Z,0.00
2023-02-04T02:50:38.528Z,0.00
2023-02-04T02:51:38.273Z,0.00
2023-02-04T02:52:38.581Z,0.00
2023-02-04T02:53:38.519Z,0.00
2023-02-04T02:54:38.540Z,0.00
2023-02-04T02:55:39.485Z,0.00
2023-02-04T02:56:38.212Z,0.00
2023-02-04T02:57:38.501Z,0.00
2023-02-04T02:58:38.441Z,0.00
2023-02-04T02:59:38.438Z,0.00
2023-02-04T03:00:38.179Z,0.00
2023-02-04T03:01:38.218Z,0.00
2023-02-04T03:02:38.238Z,0.00
2023-02-04T03:03:38.406Z,0.00
2023-02-04T03:04:38.127Z,0.00
2023-02-04T03:05:38.117Z,0.00
2023-02-04T03:06:37.449Z,0.00
2023-02-04T03:07:38.124Z,0.00
2023-02-04T03:08:38.086Z,0.00
2023-02-04T03:09:38.332Z,0.00
2023-02-04T03:10:38.059Z,0.00
2023-02-04T03:11:38.357Z,0.00
2023-02-04T03:12:38.039Z,0.00
2023-02-04T03:13:38.307Z,0.00
2023-02-04T03:14:38.323Z,0.00
2023-02-04T03:15:38.121Z,0.00
2023-02-04T03:16:38.312Z,0.00
2023-02-04T03:17:38.266Z,0.00
2023-02-04T03:18:37.969Z,0.00
2023-02-04T03:19:38.240Z,0.00
2023-02-04T03:20:37.265Z,0.00
2023-02-04T03:21:37.342Z,0.00
2023-02-04T03:22:37.256Z,0.00
2023-02-04T03:23:37.937Z,0.00
2023-02-04T03:24:37.273Z,0.00
2023-02-04T03:25:37.235Z,0.00
2023-02-04T03:26:39.165Z,0.00
2023-02-04T03:27:37.214Z,0.00
2023-02-04T03:28:37.199Z,0.00
2023-02-04T03:29:37.875Z,0.00
2023-02-04T03:30:37.207Z,0.00
2023-02-04T03:31:38.159Z,0.00
2023-02-04T03:32:38.486Z,0.00
2023-02-04T03:33:43.584Z,0.00
2023-02-04T03:34:37.123Z,0.00
2023-02-04T03:35:38.082Z,0.00
2023-02-04T03:36:39.069Z,0.00
2023-02-04T03:37:38.038Z,0.00
2023-02-04T03:38:37.793Z,0.00
2023-02-04T03:39:37.766Z,0.00
2023-02-04T03:40:37.767Z,0.00
2023-02-04T03:41:37.070Z,0.00
2023-02-04T03:42:37.099Z,0.00
2023-02-04T03:43:37.726Z,0.00
2023-02-04T03:44:37.041Z,0.00
2023-02-04T03:45:45.365Z,0.00
2023-02-04T03:46:39.444Z,0.00
2023-02-04T03:47:36.991Z,0.00
2023-02-04T03:48:37.962Z,0.00
2023-02-04T03:49:37.660Z,0.00
2023-02-04T03:50:36.952Z,0.00
2023-02-04T03:51:36.967Z,0.00
2023-02-04T03:52:36.950Z,0.00
2023-02-04T03:53:37.623Z,0.00
2023-02-04T03:54:36.940Z,0.00
2023-02-04T03:55:37.872Z,0.00
2023-02-04T03:56:37.588Z,0.00
2023-02-04T03:57:36.914Z,0.00
2023-02-04T03:58:36.896Z,0.00
2023-02-04T03:59:36.898Z,0.00
2023-02-04T04:00:36.905Z,0.00
2023-02-04T04:01:36.919Z,0.00
2023-02-04T04:02:37.541Z,0.00
2023-02-04T04:03:36.845Z,0.00
2023-02-04T04:04:36.832Z,0.00
2023-02-04T04:05:37.507Z,0.00
2023-02-04T04:06:36.868Z,0.00
2023-02-04T04:07:37.477Z,0.00
2023-02-04T04:08:37.456Z,0.00
2023-02-04T04:09:36.760Z,0.00
2023-02-04T04:10:36.759Z,0.00
2023-02-04T04:11:37.438Z,0.00
2023-02-04T04:12:36.763Z,0.00
2023-02-04T04:13:37.410Z,0.00
2023-02-04T04:14:37.398Z,0.00
2023-02-04T04:15:36.758Z,0.00
2023-02-04T04:16:36.719Z,0.00
2023-02-04T04:17:36.711Z,0.00
2023-02-04T04:18:37.362Z,0.00
2023-02-04T04:19:37.358Z,0.00
2023-02-04T04:20:36.646Z,0.00
2023-02-04T04:21:37.335Z,0.00
2023-02-04T04:22:37.311Z,0.00
2023-02-04T04:23:36.675Z,0.00
2023-02-04T04:24:36.651Z,0.00
2023-02-04T04:25:37.282Z,0.00
2023-02-04T04:26:36.614Z,0.00
2023-02-04T04:27:37.259Z,0.00
2023-02-04T04:28:36.586Z,0.00
2023-02-04T04:29:37.241Z,0.00
2023-02-04T04:30:37.290Z,0.00
2023-02-04T04:31:37.327Z,0.00
2023-02-04T04:32:37.212Z,0.00
2023-02-04T04:33:37.198Z,0.00
2023-02-04T04:34:37.188Z,0.00
2023-02-04T04:35:37.167Z,0.00
2023-02-04T04:36:37.175Z,0.00
2023-02-04T04:37:37.145Z,0.00
2023-02-04T04:38:37.136Z,0.00
2023-02-04T04:39:37.130Z,0.00
2023-02-04T04:40:36.427Z,0.00
2023-02-04T04:41:36.451Z,0.00
2023-02-04T04:42:37.092Z,0.00
2023-02-04T04:43:37.107Z,0.00
2023-02-04T04:44:37.105Z,0.00
2023-02-04T04:45:37.063Z,0.00
2023-02-04T04:46:37.116Z,0.00
2023-02-04T04:47:37.054Z,0.00
2023-02-04T04:48:37.015Z,0.00
2023-02-04T04:49:36.349Z,0.00
2023-02-04T04:50:37.015Z,0.00
2023-02-04T04:51:37.023Z,0.00
2023-02-04T04:52:36.987Z,0.00
2023-02-04T04:53:36.975Z,0.00
2023-02-04T04:54:36.338Z,0.00
2023-02-04T04:55:36.288Z,0.00
2023-02-04T04:56:36.947Z,0.00
2023-02-04T04:57:36.926Z,0.00
2023-02-04T04:58:36.260Z,0.00
2023-02-04T04:59:36.909Z,0.00
2023-02-04T05:00:36.947Z,0.00
2023-02-04T05:01:36.901Z,0.00
2023-02-04T05:02:36.188Z,0.00
2023-02-04T05:03:36.200Z,0.00
2023-02-04T05:04:36.188Z,0.00
2023-02-04T05:05:36.861Z,0.00
2023-02-04T05:06:36.223Z,0.00
2023-02-04T05:07:36.181Z,0.00
2023-02-04T05:08:36.152Z,0.00
2023-02-04T05:09:36.828Z,0.00
2023-02-04T05:10:36.152Z,0.00
2023-02-04T05:11:36.789Z,0.00
2023-02-04T05:12:38.493Z,0.00
2023-02-04T05:13:37.030Z,0.00
2023-02-04T05:14:37.204Z,0.00
2023-02-04T05:15:36.072Z,0.00
2023-02-04T05:16:36.108Z,0.00
2023-02-04T05:17:36.729Z,0.00
2023-02-04T05:18:36.717Z,0.00
2023-02-04T05:19:36.704Z,0.00
2023-02-04T05:20:36.724Z,0.00
2023-02-04T05:21:36.682Z,0.00
2023-02-04T05:22:36.681Z,0.00
2023-02-04T05:23:36.955Z,0.00
2023-02-04T05:24:36.628Z,0.00
2023-02-04T05:25:36.643Z,0.00
2023-02-04T05:26:36.645Z,0.00
2023-02-04T05:27:35.971Z,0.00
2023-02-04T05:28:36.861Z,0.00
2023-02-04T05:29:36.872Z,0.00
2023-02-04T05:30:36.890Z,0.00
2023-02-04T05:31:36.592Z,0.00
2023-02-04T05:32:36.569Z,0.00
2023-02-04T05:33:36.561Z,0.00
2023-02-04T05:34:36.560Z,0.00
2023-02-04T05:35:36.551Z,0.00
2023-02-04T05:36:36.530Z,0.00
2023-02-04T05:37:36.520Z,0.00
2023-02-04T05:38:36.500Z,0.00
2023-02-04T05:39:36.502Z,0.00
2023-02-04T05:40:36.482Z,0.00
2023-02-04T05:41:35.830Z,0.00
2023-02-04T05:42:35.790Z,0.00
2023-02-04T05:43:36.458Z,0.00
2023-02-04T05:44:36.442Z,0.00
2023-02-04T05:45:35.865Z,0.00
2023-02-04T05:46:36.423Z,0.00
2023-02-04T05:47:35.812Z,0.00
2023-02-04T05:48:36.400Z,0.00
2023-02-04T05:49:36.384Z,0.00
2023-02-04T05:50:35.722Z,0.00
2023-02-04T05:51:35.771Z,0.00
2023-02-04T05:52:36.358Z,0.00
2023-02-04T05:53:38.402Z,0.00
2023-02-04T05:54:35.640Z,0.00
2023-02-04T05:55:36.366Z,0.00
2023-02-04T05:56:35.632Z,0.00
2023-02-04T05:57:36.310Z,0.00
2023-02-04T05:58:35.606Z,0.00
2023-02-04T05:59:36.280Z,0.00
2023-02-04T06:00:35.618Z,0.00
2023-02-04T06:01:35.581Z,0.00
2023-02-04T06:02:35.586Z,0.00
2023-02-04T06:03:36.310Z,0.00
2023-02-04T06:04:36.270Z,0.00
2023-02-04T06:05:35.586Z,0.00
2023-02-04T06:06:36.203Z,0.00
2023-02-04T06:07:36.195Z,0.00
2023-02-04T06:08:36.199Z,0.00
2023-02-04T06:09:35.511Z,0.00
2023-02-04T06:10:35.536Z,0.00
2023-02-04T06:11:35.493Z,0.00
2023-02-04T06:12:36.141Z,0.00
2023-02-04T06:13:36.124Z,0.00
2023-02-04T06:14:35.485Z,0.00
2023-02-04T06:15:36.135Z,0.00
2023-02-04T06:16:36.202Z,0.00
2023-02-04T06:17:36.084Z,0.00
2023-02-04T06:18:36.080Z,0.00
2023-02-04T06:19:35.419Z,0.00
2023-02-04T06:20:36.075Z,0.00
2023-02-04T06:21:36.054Z,0.00
2023-02-04T06:22:36.034Z,0.00
2023-02-04T06:23:36.025Z,0.00
2023-02-04T06:24:36.017Z,0.00
2023-02-04T06:25:36.024Z,0.00
2023-02-04T06:26:35.325Z,0.00
2023-02-04T06:27:35.320Z,0.00
2023-02-04T06:28:35.974Z,0.00
2023-02-04T06:29:35.962Z,0.00
2023-02-04T06:30:35.699Z,0.00
2023-02-04T06:31:35.321Z,0.00
2023-02-04T06:32:35.251Z,0.00
2023-02-04T06:33:35.917Z,0.00
2023-02-04T06:34:35.898Z,0.00
2023-02-04T06:35:35.925Z,0.00
2023-02-04T06:36:35.887Z,0.00
2023-02-04T06:37:35.236Z,0.00
2023-02-04T06:38:35.181Z,0.00
2023-02-04T06:39:35.199Z,0.00
2023-02-04T06:40:35.209Z,0.00
2023-02-04T06:41:35.841Z,0.00
2023-02-04T06:42:35.136Z,0.00
2023-02-04T06:43:35.810Z,0.00
2023-02-04T06:44:35.790Z,0.00
2023-02-04T06:45:35.168Z,0.00
2023-02-04T06:46:35.775Z,0.00
2023-02-04T06:47:35.776Z,0.00
2023-02-04T06:48:36.017Z,0.00
2023-02-04T06:49:35.072Z,0.00
2023-02-04T06:50:35.767Z,0.00
2023-02-04T06:51:35.747Z,0.00
2023-02-04T06:52:35.751Z,0.00
2023-02-04T06:53:35.921Z,0.00
2023-02-04T06:54:35.702Z,0.00
2023-02-04T06:55:35.690Z,0.00
2023-02-04T06:56:35.703Z,0.00
2023-02-04T06:57:35.916Z,0.00
2023-02-04T06:58:35.661Z,5.62
2023-02-04T06:59:35.911Z,5.62
2023-02-04T07:00:35.161Z,5.62
2023-02-04T07:01:35.673Z,5.62
2023-02-04T07:02:35.650Z,5.62
2023-02-04T07:03:35.620Z,5.62
2023-02-04T07:04:35.600Z,5.62
2023-02-04T07:05:34.907Z,5.62
2023-02-04T07:06:35.605Z,5.62
2023-02-04T07:07:35.558Z,5.62
2023-02-04T07:08:35.553Z,5.62
2023-02-04T07:09:35.539Z,5.62
2023-02-04T07:10:35.756Z,5.62
2023-02-04T07:11:35.542Z,5.62
2023-02-04T07:12:35.515Z,5.62
2023-02-04T07:13:34.825Z,5.62
2023-02-04T07:14:35.486Z,5.62
2023-02-04T07:15:35.543Z,5.62
2023-02-04T07:16:35.489Z,5.62
2023-02-04T07:17:34.789Z,5.62
2023-02-04T07:18:35.452Z,5.62
2023-02-04T07:19:34.789Z,11.25
2023-02-04T07:20:35.127Z,11.25
2023-02-04T07:21:34.752Z,11.25
2023-02-04T07:22:35.396Z,11.25
2023-02-04T07:23:35.389Z,16.88
2023-02-04T07:24:34.706Z,16.88
2023-02-04T07:25:34.708Z,16.88
2023-02-04T07:26:35.384Z,16.88
2023-02-04T07:27:35.353Z,16.88
2023-02-04T07:28:35.335Z,16.88
2023-02-04T07:29:34.632Z,16.88
2023-02-04T07:30:35.142Z,16.88
2023-02-04T07:31:35.508Z,22.50
2023-02-04T07:32:35.307Z,22.50
2023-02-04T07:33:34.614Z,22.50
2023-02-04T07:34:34.594Z,22.50
2023-02-04T07:35:35.272Z,28.12
2023-02-04T07:36:36.088Z,28.12
2023-02-04T07:37:35.987Z,28.12
2023-02-04T07:38:35.224Z,28.12
2023-02-04T07:39:35.505Z,28.12
2023-02-04T07:40:34.804Z,28.12
2023-02-04T07:41:35.214Z,28.12
2023-02-04T07:42:34.502Z,28.12
2023-02-04T07:43:35.184Z,22.50
2023-02-04T07:44:35.178Z,22.50
2023-02-04T07:45:35.144Z,28.12
2023-02-04T07:46:34.550Z,28.12
2023-02-04T07:47:35.129Z,28.12
2023-02-04T07:48:35.123Z,28.12
2023-02-04T07:49:35.106Z,28.12
2023-02-04T07:50:34.808Z,28.12
2023-02-04T07:51:35.094Z,28.12
2023-02-04T07:52:35.076Z,28.12
2023-02-04T07:53:35.051Z,28.12
2023-02-04T07:54:35.059Z,28.12
2023-02-04T07:55:34.444Z,28.12
2023-02-04T07:56:34.371Z,28.12
2023-02-04T07:57:35.011Z,28.12
2023-02-04T07:58:34.343Z,28.12
2023-02-04T07:59:34.345Z,28.12
2023-02-04T08:00:34.539Z,33.75
2023-02-04T08:01:35.018Z,33.75
2023-02-04T08:02:34.329Z,39.38
2023-02-04T08:03:34.271Z,39.38
2023-02-04T08:04:34.952Z,39.38
2023-02-04T08:05:34.253Z,45.00
2023-02-04T08:06:34.249Z,45.00
2023-02-04T08:07:34.933Z,45.00
2023-02-04T08:08:34.894Z,50.62
2023-02-04T08:09:34.884Z,50.62
2023-02-04T08:10:34.455Z,50.62
2023-02-04T08:11:34.188Z,50.62
2023-02-04T08:12:34.190Z,50.62
2023-02-04T08:13:34.164Z,50.62
2023-02-04T08:14:34.826Z,50.62
2023-02-04T08:15:34.932Z,50.62
2023-02-04T08:16:35.816Z,50.62
2023-02-04T08:17:34.870Z,50.62
2023-02-04T08:18:34.780Z,50.62
2023-02-04T08:19:34.122Z,50.62
2023-02-04T08:20:34.953Z,45.00
2023-02-04T08:21:35.020Z,50.62
2023-02-04T08:22:34.769Z,50.62
2023-02-04T08:23:34.071Z,56.25
2023-02-04T08:24:34.982Z,56.25
2023-02-04T08:25:34.701Z,61.88
2023-02-04T08:26:34.692Z,61.88
2023-02-04T08:27:34.046Z,61.88
2023-02-04T08:28:34.703Z,61.88
2023-02-04T08:29:33.993Z,67.50
2023-02-04T08:30:34.348Z,67.50
2023-02-04T08:31:34.044Z,73.12
2023-02-04T08:32:33.981Z,78.75
2023-02-04T08:33:34.621Z,84.38
2023-02-04T08:34:34.607Z,90.00
2023-02-04T08:35:33.924Z,95.62
2023-02-04T08:36:34.592Z,106.88
2023-02-04T08:37:33.929Z,112.50
2023-02-04T08:38:33.880Z,118.12
2023-02-04T08:39:34.563Z,129.38
2023-02-04T08:40:34.200Z,135.00
2023-02-04T08:41:34.578Z,140.62
2023-02-04T08:42:33.992Z,140.62
2023-02-04T08:43:34.524Z,146.25
2023-02-04T08:44:33.842Z,151.88
2023-02-04T08:45:34.508Z,157.50
2023-02-04T08:46:34.552Z,163.12
2023-02-04T08:47:34.004Z,168.75
2023-02-04T08:48:33.932Z,191.25
2023-02-04T08:49:34.477Z,208.12
2023-02-04T08:50:34.705Z,236.25
2023-02-04T08:51:33.761Z,241.88
2023-02-04T08:52:33.742Z,275.62
2023-02-04T08:53:33.772Z,258.75
2023-02-04T08:54:34.422Z,219.38
2023-02-04T08:55:34.404Z,191.25
2023-02-04T08:56:33.707Z,196.88
2023-02-04T08:57:33.712Z,202.50
2023-02-04T08:58:33.816Z,213.75
2023-02-04T08:59:34.387Z,230.62
2023-02-04T09:00:34.730Z,225.00
2023-02-04T09:01:34.350Z,225.00
2023-02-04T09:02:34.345Z,219.38
2023-02-04T09:03:34.402Z,213.75
2023-02-04T09:04:33.623Z,213.75
2023-02-04T09:05:34.374Z,219.38
2023-02-04T09:06:34.292Z,213.75
2023-02-04T09:07:34.319Z,208.12
2023-02-04T09:08:34.353Z,202.50
2023-02-04T09:09:33.623Z,208.12
2023-02-04T09:10:33.980Z,230.62
2023-02-04T09:11:34.238Z,298.12
2023-02-04T09:12:35.008Z,371.25
2023-02-04T09:13:34.268Z,388.12
2023-02-04T09:14:34.226Z,382.50
2023-02-04T09:15:33.530Z,326.25
2023-02-04T09:16:34.270Z,281.25
2023-02-04T09:17:34.189Z,264.38
2023-02-04T09:18:34.210Z,292.50
2023-02-04T09:19:33.494Z,292.50
2023-02-04T09:20:33.828Z,286.88
2023-02-04T09:21:33.463Z,292.50
2023-02-04T09:22:34.126Z,331.88
2023-02-04T09:23:34.243Z,326.25
2023-02-04T09:24:34.130Z,303.75
2023-02-04T09:25:34.116Z,331.88
2023-02-04T09:26:34.114Z,405.00
2023-02-04T09:27:34.105Z,405.00
2023-02-04T09:28:34.432Z,551.25
2023-02-04T09:29:34.083Z,720.00
2023-02-04T09:30:34.464Z,675.00
2023-02-04T09:31:34.298Z,506.25
2023-02-04T09:32:34.181Z,551.25
2023-02-04T09:33:34.112Z,613.12
2023-02-04T09:34:34.248Z,388.12
2023-02-04T09:35:40.410Z,590.62
2023-02-04T09:36:33.571Z,331.88
2023-02-04T09:37:34.069Z,405.00
2023-02-04T09:38:34.812Z,472.50
2023-02-04T09:39:33.963Z,365.62
2023-02-04T09:40:34.328Z,545.62
2023-02-04T09:41:33.946Z,376.88
2023-02-04T09:42:33.266Z,331.88
2023-02-04T09:43:33.295Z,275.62
2023-02-04T09:44:33.224Z,298.12
2023-02-04T09:45:33.942Z,281.25
2023-02-04T09:46:33.237Z,253.12
2023-02-04T09:47:34.126Z,253.12
2023-02-04T09:48:34.214Z,241.88
2023-02-04T09:49:34.107Z,247.50
2023-02-04T09:50:33.683Z,241.88
2023-02-04T09:51:33.830Z,230.62
2023-02-04T09:52:33.833Z,230.62
2023-02-04T09:53:33.943Z,225.00
2023-02-04T09:54:34.021Z,230.62
2023-02-04T09:55:33.109Z,230.62
2023-02-04T09:56:33.107Z,230.62
2023-02-04T09:57:33.745Z,230.62
2023-02-04T09:58:33.736Z,241.88
2023-02-04T09:59:33.085Z,247.50
2023-02-04T10:00:33.313Z,258.75
2023-02-04T10:01:33.699Z,258.75
2023-02-04T10:02:33.027Z,258.75
2023-02-04T10:03:33.721Z,258.75
2023-02-04T10:04:34.039Z,258.75
2023-02-04T10:05:33.940Z,258.75
2023-02-04T10:06:33.641Z,258.75
2023-02-04T10:07:32.993Z,258.75
2023-02-04T10:08:32.930Z,253.12
2023-02-04T10:09:33.026Z,247.50
2023-02-04T10:10:33.945Z,241.88
2023-02-04T10:11:33.591Z,236.25
2023-02-04T10:12:33.575Z,230.62
2023-02-04T10:13:32.880Z,230.62
2023-02-04T10:14:33.647Z,225.00
2023-02-04T10:15:32.876Z,219.38
2023-02-04T10:16:33.587Z,213.75
2023-02-04T10:17:32.824Z,213.75
2023-02-04T10:18:33.516Z,219.38
2023-02-04T10:19:33.586Z,225.00
2023-02-04T10:20:33.188Z,230.62
2023-02-04T10:21:33.477Z,236.25
2023-02-04T10:22:33.466Z,236.25
2023-02-04T10:23:32.787Z,241.88
2023-02-04T10:24:33.515Z,241.88
2023-02-04T10:25:33.431Z,241.88
2023-02-04T10:26:32.755Z,247.50
2023-02-04T10:27:33.415Z,253.12
2023-02-04T10:28:33.407Z,258.75
2023-02-04T10:29:33.692Z,264.38
2023-02-04T10:30:33.015Z,264.38
2023-02-04T10:31:34.194Z,270.00
2023-02-04T10:32:33.372Z,281.25
2023-02-04T10:33:32.646Z,264.38
2023-02-04T10:34:32.729Z,258.75
2023-02-04T10:35:33.324Z,258.75
2023-02-04T10:36:33.594Z,253.12
2023-02-04T10:37:33.306Z,258.75
2023-02-04T10:38:33.299Z,253.12
2023-02-04T10:39:32.755Z,258.75
2023-02-04T10:40:32.905Z,275.62
2023-02-04T10:41:33.555Z,258.75
2023-02-04T10:42:32.578Z,270.00
2023-02-04T10:43:32.586Z,264.38
2023-02-04T10:44:32.674Z,258.75
2023-02-04T10:45:33.487Z,253.12
2023-02-04T10:46:33.213Z,236.25
2023-02-04T10:47:32.521Z,225.00
2023-02-04T10:48:32.545Z,225.00
2023-02-04T10:49:32.624Z,225.00
2023-02-04T10:50:33.503Z,225.00
2023-02-04T10:51:33.149Z,225.00
2023-02-04T10:52:33.417Z,225.00
2023-02-04T10:53:33.873Z,219.38
2023-02-04T10:54:33.153Z,219.38
2023-02-04T10:55:33.108Z,219.38
2023-02-04T10:56:33.376Z,230.62
2023-02-04T10:57:33.410Z,236.25
2023-02-04T10:58:33.348Z,236.25
2023-02-04T10:59:33.342Z,236.25
2023-02-04T11:00:33.436Z,236.25
2023-02-04T11:01:33.105Z,225.00
2023-02-04T11:02:33.039Z,213.75
2023-02-04T11:03:33.349Z,208.12
2023-02-04T11:04:33.026Z,208.12
2023-02-04T11:05:33.041Z,213.75
2023-02-04T11:06:33.283Z,219.38
2023-02-04T11:07:33.289Z,219.38
2023-02-04T11:08:32.965Z,225.00
2023-02-04T11:09:33.231Z,230.62
2023-02-04T11:10:33.286Z,241.88
2023-02-04T11:11:33.245Z,241.88
2023-02-04T11:12:32.925Z,247.50
2023-02-04T11:13:32.926Z,253.12
2023-02-04T11:14:32.285Z,253.12
2023-02-04T11:15:32.272Z,241.88
2023-02-04T11:16:32.252Z,236.25
2023-02-04T11:17:32.875Z,241.88
2023-02-04T11:18:33.114Z,241.88
2023-02-04T11:19:32.857Z,241.88
2023-02-04T11:20:33.219Z,236.25
2023-02-04T11:21:32.865Z,230.62
2023-02-04T11:22:32.134Z,219.38
2023-02-04T11:23:32.812Z,213.75
2023-02-04T11:24:32.178Z,213.75
2023-02-04T11:25:33.145Z,213.75
2023-02-04T11:26:32.776Z,219.38
2023-02-04T11:27:32.855Z,219.38
2023-02-04T11:28:33.054Z,219.38
2023-02-04T11:29:32.740Z,219.38
2023-02-04T11:30:32.105Z,219.38
2023-02-04T11:31:33.137Z,213.75
2023-02-04T11:32:32.970Z,208.12
2023-02-04T11:33:32.951Z,196.88
2023-02-04T11:34:32.976Z,196.88
2023-02-04T11:35:32.989Z,196.88
2023-02-04T11:36:32.668Z,202.50
2023-02-04T11:37:32.659Z,208.12
2023-02-04T11:38:32.651Z,208.12
2023-02-04T11:39:32.899Z,202.50
2023-02-04T11:40:32.888Z,196.88
2023-02-04T11:41:32.898Z,191.25
2023-02-04T11:42:32.611Z,196.88
2023-02-04T11:43:32.608Z,196.88
2023-02-04T11:44:33.411Z,202.50
2023-02-04T11:45:33.020Z,202.50
2023-02-04T11:46:31.931Z,202.50
2023-02-04T11:47:32.550Z,202.50
2023-02-04T11:48:32.808Z,202.50
2023-02-04T11:49:32.791Z,208.12
2023-02-04T11:50:32.532Z,208.12
2023-02-04T11:51:32.788Z,213.75
2023-02-04T11:52:32.787Z,219.38
2023-02-04T11:53:31.989Z,225.00
2023-02-04T11:54:32.474Z,230.62
2023-02-04T11:55:32.906Z,236.25
2023-02-04T11:56:32.750Z,225.00
2023-02-04T11:57:32.441Z,225.00
2023-02-04T11:58:32.445Z,225.00
2023-02-04T11:59:32.433Z,225.00
2023-02-04T12:00:32.691Z,230.62
2023-02-04T12:01:32.420Z,230.62
2023-02-04T12:02:32.451Z,230.62
2023-02-04T12:03:31.769Z,230.62
2023-02-04T12:04:32.379Z,230.62
2023-02-04T12:05:32.614Z,230.62
2023-02-04T12:06:31.685Z,236.25
2023-02-04T12:07:32.352Z,236.25
2023-02-04T12:08:32.344Z,236.25
2023-02-04T12:09:32.324Z,236.25
2023-02-04T12:10:32.639Z,236.25
2023-02-04T12:11:32.320Z,230.62
2023-02-04T12:12:32.299Z,230.62
2023-02-04T12:13:32.572Z,230.62
2023-02-04T12:14:32.270Z,230.62
2023-02-04T12:15:32.537Z,230.62
2023-02-04T12:16:31.587Z,230.62
2023-02-04T12:17:32.248Z,236.25
2023-02-04T12:18:32.241Z,230.62
2023-02-04T12:19:32.212Z,230.62
2023-02-04T12:20:32.215Z,219.38
2023-02-04T12:21:33.020Z,208.12
2023-02-04T12:22:32.169Z,202.50
2023-02-04T12:23:32.162Z,191.25
2023-02-04T12:24:32.159Z,191.25
2023-02-04T12:25:32.473Z,191.25
2023-02-04T12:26:32.210Z,185.62
2023-02-04T12:27:32.424Z,180.00
2023-02-04T12:28:32.117Z,174.38
2023-02-04T12:29:32.107Z,168.75
2023-02-04T12:30:31.460Z,174.38
2023-02-04T12:31:32.425Z,174.38
2023-02-04T12:32:32.087Z,168.75
2023-02-04T12:33:32.052Z,163.12
2023-02-04T12:34:31.514Z,163.12
2023-02-04T12:35:32.394Z,163.12
2023-02-04T12:36:32.043Z,168.75
2023-02-04T12:37:32.301Z,163.12
2023-02-04T12:38:32.270Z,157.50
2023-02-04T12:39:31.323Z,146.25
2023-02-04T12:40:31.352Z,140.62
2023-02-04T12:41:32.008Z,140.62
2023-02-04T12:42:31.368Z,135.00
2023-02-04T12:43:31.974Z,135.00
2023-02-04T12:44:31.941Z,129.38
2023-02-04T12:45:32.269Z,135.00
2023-02-04T12:46:32.002Z,140.62
2023-02-04T12:47:31.939Z,151.88
2023-02-04T12:48:31.960Z,157.50
2023-02-04T12:49:31.930Z,168.75
2023-02-04T12:50:32.161Z,174.38
2023-02-04T12:51:31.862Z,180.00
2023-02-04T12:52:31.281Z,185.62
2023-02-04T12:53:31.879Z,174.38
2023-02-04T12:54:31.476Z,151.88
2023-02-04T12:55:32.150Z,140.62
2023-02-04T12:56:31.801Z,129.38
2023-02-04T12:57:31.237Z,129.38
2023-02-04T12:58:32.084Z,118.12